createdAt,value
2019-01-11T00:00:08.584Z,6.90
2019-01-11T00:02:41.386Z,7.10
2019-01-11T00:05:12.632Z,7.90
2019-01-11T00:07:43.903Z,8.37
2019-01-11T00:10:16.114Z,7.53
2019-01-11T00:12:47.360Z,7.97
2019-01-11T00:15:18.604Z,8.33
2019-01-11T00:17:49.873Z,8.40
2019-01-11T00:20:21.364Z,7.07
2019-01-11T00:22:52.685Z,7.27
2019-01-11T00:25:23.911Z,7.23
2019-01-11T00:27:55.565Z,6.77
2019-01-11T00:30:26.777Z,6.93
2019-01-11T00:32:58.012Z,6.77
2019-01-11T00:35:29.548Z,7.70
2019-01-11T00:38:00.785Z,5.90
2019-01-11T00:40:32.040Z,6.20
2019-01-11T00:43:03.370Z,6.90
2019-01-11T00:45:34.705Z,7.50
2019-01-11T00:48:05.977Z,6.33
2019-01-11T00:50:37.225Z,6.63
2019-01-11T00:53:08.925Z,7.40
2019-01-11T00:55:40.185Z,5.93
2019-01-11T00:58:11.424Z,6.73
2019-01-11T01:00:42.701Z,6.63
2019-01-11T01:03:13.949Z,5.70
2019-01-11T01:05:45.204Z,5.80
2019-01-11T01:08:16.585Z,6.70
2019-01-11T01:10:47.955Z,8.60
2019-01-11T01:13:19.307Z,7.90
2019-01-11T01:15:50.708Z,6.50
2019-01-11T01:18:22.160Z,6.57
2019-01-11T01:20:53.417Z,6.83
2019-01-11T01:23:24.677Z,5.90
2019-01-11T01:25:56.033Z,6.30
2019-01-11T01:28:27.357Z,7.03
2019-01-11T01:30:58.614Z,6.77
2019-01-11T01:33:29.857Z,6.10
2019-01-11T01:36:01.126Z,5.80
2019-01-11T01:38:32.374Z,6.77
2019-01-11T01:41:03.635Z,6.47
2019-01-11T01:43:34.969Z,6.30
2019-01-11T01:46:06.336Z,7.30
2019-01-11T01:48:37.584Z,7.03
2019-01-11T01:51:08.854Z,7.43
2019-01-11T01:53:40.113Z,6.03
2019-01-11T01:56:11.321Z,6.87
2019-01-11T01:58:42.566Z,6.93
2019-01-11T02:01:13.809Z,7.30
2019-01-11T02:03:45.114Z,6.67
2019-01-11T02:06:16.385Z,5.87
2019-01-11T02:08:47.617Z,5.97
2019-01-11T02:11:18.874Z,5.77
2019-01-11T02:13:50.124Z,5.53
2019-01-11T02:16:21.789Z,5.83
2019-01-11T02:18:53.221Z,6.13
2019-01-11T02:21:24.535Z,7.13
2019-01-11T02:23:55.792Z,5.43
2019-01-11T02:26:27.020Z,5.37
2019-01-11T02:29:01.052Z,6.80
2019-01-11T02:31:32.418Z,6.13
2019-01-11T02:34:03.989Z,5.73
2019-01-11T02:36:35.260Z,6.77
2019-01-11T02:39:08.132Z,7.03
2019-01-11T02:41:39.398Z,6.83
2019-01-11T02:44:10.676Z,6.37
2019-01-11T02:46:41.960Z,6.10
2019-01-11T02:49:13.697Z,6.10
2019-01-11T02:51:44.964Z,7.90
2019-01-11T02:54:16.201Z,7.57
2019-01-11T02:56:47.416Z,7.37
2019-01-11T02:59:18.681Z,6.93
2019-01-11T03:01:49.913Z,6.47
2019-01-11T03:04:21.159Z,7.07
2019-01-11T03:06:52.418Z,6.60
2019-01-11T03:09:23.676Z,5.73
2019-01-11T03:11:55.600Z,6.47
2019-01-11T03:14:26.885Z,6.73
2019-01-11T03:16:58.145Z,6.30
2019-01-11T03:19:29.389Z,6.60
2019-01-11T03:22:00.737Z,6.27
2019-01-11T03:24:31.991Z,6.10
2019-01-11T03:27:03.262Z,6.53
2019-01-11T03:29:34.794Z,6.27
2019-01-11T03:32:06.140Z,6.53
2019-01-11T03:34:44.953Z,6.63
2019-01-11T03:37:16.312Z,5.50
2019-01-11T03:39:47.620Z,5.40
2019-01-11T03:42:18.885Z,5.80
2019-01-11T03:44:50.317Z,7.83
2019-01-11T03:47:21.680Z,5.80
2019-01-11T03:49:54.975Z,7.23
2019-01-11T03:52:26.926Z,6.40
2019-01-11T03:54:58.167Z,5.73
2019-01-11T03:57:29.527Z,6.13
2019-01-11T04:00:00.793Z,7.00
2019-01-11T04:02:32.040Z,7.43
2019-01-11T04:05:03.312Z,7.70
2019-01-11T04:07:34.546Z,6.87
2019-01-11T04:10:07.895Z,7.47
2019-01-11T04:12:39.176Z,8.63
2019-01-11T04:15:11.219Z,7.83
2019-01-11T04:17:42.460Z,8.10
2019-01-11T04:20:16.554Z,8.70
2019-01-11T04:22:53.830Z,8.87
2019-01-11T04:25:29.977Z,9.10
2019-01-11T04:28:04.140Z,8.27
2019-01-11T04:30:35.455Z,8.77
2019-01-11T04:33:06.701Z,8.07
2019-01-11T04:35:37.969Z,9.90
2019-01-11T04:38:09.277Z,10.10
2019-01-11T04:40:40.605Z,10.50
2019-01-11T04:43:11.870Z,11.20
2019-01-11T04:45:43.219Z,10.33
2019-01-11T04:48:14.433Z,11.47
2019-01-11T04:50:45.664Z,10.87
2019-01-11T04:53:16.908Z,11.33
2019-01-11T04:55:48.158Z,11.37
2019-01-11T04:58:19.418Z,10.57
2019-01-11T05:00:50.689Z,11.43
2019-01-11T05:03:21.947Z,11.73
2019-01-11T05:05:53.224Z,11.20
2019-01-11T05:08:24.504Z,9.70
2019-01-11T05:10:55.754Z,11.73
2019-01-11T05:13:37.361Z,12.03
2019-01-11T05:16:08.714Z,12.47
2019-01-11T05:18:39.989Z,11.23
2019-01-11T05:21:11.238Z,11.50
2019-01-11T05:23:42.528Z,11.70
2019-01-11T05:26:13.852Z,12.65
2019-01-11T05:28:45.101Z,13.10
2019-01-11T05:31:19.107Z,13.07
2019-01-11T05:33:50.374Z,14.17
2019-01-11T05:36:21.634Z,13.73
2019-01-11T05:38:52.917Z,13.20
2019-01-11T05:41:24.176Z,13.73
2019-01-11T05:43:55.421Z,13.03
2019-01-11T05:46:26.705Z,13.53
2019-01-11T05:48:57.978Z,14.23
2019-01-11T05:51:29.195Z,14.17
2019-01-11T05:54:00.454Z,13.87
2019-01-11T05:56:32.493Z,14.90
2019-01-11T05:59:08.006Z,13.77
2019-01-11T06:01:39.268Z,15.10
2019-01-11T06:04:29.431Z,12.87
2019-01-11T06:07:28.460Z,14.60
2019-01-11T06:09:59.745Z,16.33
2019-01-11T06:12:31.000Z,19.43
2019-01-11T06:15:02.369Z,13.97
2019-01-11T06:17:33.641Z,14.43
2019-01-11T06:20:06.236Z,14.37
2019-01-11T06:22:37.489Z,17.53
2019-01-11T06:25:08.850Z,16.57
2019-01-11T06:27:40.257Z,18.00
2019-01-11T06:30:13.606Z,14.63
2019-01-11T06:32:45.125Z,15.70
2019-01-11T06:35:16.476Z,13.87
2019-01-11T06:37:47.789Z,14.57
2019-01-11T06:40:19.004Z,16.63
2019-01-11T06:42:50.268Z,17.03
2019-01-11T06:45:21.522Z,17.83
2019-01-11T06:47:53.257Z,20.53
2019-01-11T06:50:24.514Z,23.63
2019-01-11T06:52:55.760Z,21.37
2019-01-11T06:55:27.025Z,21.83
2019-01-11T06:57:58.251Z,19.70
2019-01-11T07:00:29.536Z,17.63
2019-01-11T07:03:00.782Z,20.17
2019-01-11T07:05:32.033Z,22.70
2019-01-11T07:08:03.373Z,27.87
2019-01-11T07:10:34.629Z,23.53
2019-01-11T07:13:06.014Z,22.80
2019-01-11T07:15:37.269Z,21.77
2019-01-11T07:18:08.538Z,21.67
2019-01-11T07:20:42.984Z,22.47
2019-01-11T07:23:12.978Z,23.30
2019-01-11T07:25:44.253Z,25.47
2019-01-11T07:28:15.618Z,23.33
2019-01-11T07:31:04.376Z,25.73
2019-01-11T07:33:35.991Z,24.17
2019-01-11T07:36:33.132Z,25.17
2019-01-11T07:39:13.395Z,26.00
2019-01-11T07:41:44.669Z,25.17
2019-01-11T07:44:15.955Z,29.80
2019-01-11T07:46:47.503Z,26.13
2019-01-11T07:49:23.137Z,26.57
2019-01-11T07:51:51.688Z,28.63
2019-01-11T07:54:22.964Z,29.10
2019-01-11T07:56:55.464Z,28.40
2019-01-11T07:59:26.828Z,28.87
2019-01-11T08:01:58.089Z,40.77
2019-01-11T08:04:29.353Z,37.00
2019-01-11T08:07:00.574Z,31.63
2019-01-11T08:09:31.949Z,36.97
2019-01-11T08:12:04.204Z,31.30
2019-01-11T08:14:35.465Z,30.43
2019-01-11T08:17:06.822Z,34.83
2019-01-11T08:19:38.085Z,30.30
2019-01-11T08:22:11.890Z,33.37
2019-01-11T08:24:46.956Z,34.67
2019-01-11T08:27:18.202Z,35.77
2019-01-11T08:29:49.489Z,32.73
2019-01-11T08:32:20.762Z,30.33
2019-01-11T08:34:52.031Z,38.63
2019-01-11T08:37:23.767Z,31.03
2019-01-11T08:39:55.038Z,32.10
2019-01-11T08:42:26.353Z,33.30
2019-01-11T08:44:59.187Z,34.03
2019-01-11T08:47:30.714Z,34.13
2019-01-11T08:50:02.985Z,40.20
2019-01-11T08:52:34.263Z,30.33
2019-01-11T08:55:06.100Z,29.37
2019-01-11T08:57:37.417Z,28.50
2019-01-11T09:00:10.491Z,37.97
2019-01-11T09:02:41.769Z,27.50
2019-01-11T09:05:14.089Z,28.50
2019-01-11T09:07:45.355Z,25.17
2019-01-11T09:10:22.626Z,27.87
2019-01-11T09:12:49.854Z,28.70
2019-01-11T09:15:21.112Z,29.97
2019-01-11T09:18:09.777Z,27.30
2019-01-11T09:20:41.529Z,29.40
2019-01-11T09:23:12.924Z,28.47
2019-01-11T09:25:44.160Z,29.70
2019-01-11T09:28:15.592Z,30.17
2019-01-11T09:30:46.873Z,27.87
2019-01-11T09:33:20.601Z,32.17
2019-01-11T09:35:50.978Z,28.00
2019-01-11T09:38:23.260Z,32.03
2019-01-11T09:40:54.517Z,27.67
2019-01-11T09:43:27.485Z,29.63
2019-01-11T09:45:59.003Z,25.30
2019-01-11T09:48:30.362Z,25.23
2019-01-11T09:51:03.021Z,32.03
2019-01-11T09:53:34.446Z,28.83
2019-01-11T09:56:05.961Z,27.37
2019-01-11T09:58:37.233Z,27.47
2019-01-11T10:01:08.456Z,29.13
2019-01-11T10:03:39.788Z,27.23
2019-01-11T10:06:11.062Z,27.60
2019-01-11T10:08:42.347Z,28.73
2019-01-11T10:11:14.604Z,25.33
2019-01-11T10:13:46.020Z,31.07
2019-01-11T10:16:17.262Z,25.93
2019-01-11T10:18:48.521Z,26.07
2019-01-11T10:21:23.074Z,25.77
2019-01-11T10:23:52.629Z,25.77
2019-01-11T10:26:24.534Z,21.07
2019-01-11T10:28:55.793Z,19.87
2019-01-11T10:31:27.096Z,23.50
2019-01-11T10:33:58.366Z,26.30
2019-01-11T10:36:29.624Z,23.10
2019-01-11T10:39:00.917Z,25.40
2019-01-11T10:41:33.160Z,28.03
2019-01-11T10:44:05.553Z,24.50
2019-01-11T10:46:38.197Z,26.80
2019-01-11T10:49:09.483Z,28.23
2019-01-11T10:51:40.728Z,25.57
2019-01-11T10:54:20.092Z,23.30
2019-01-11T10:56:51.438Z,21.60
2019-01-11T10:59:22.699Z,23.70
2019-01-11T11:01:55.001Z,26.83
2019-01-11T11:04:26.226Z,23.47
2019-01-11T11:06:57.493Z,24.87
2019-01-11T11:09:28.784Z,24.83
2019-01-11T11:12:00.111Z,22.70
2019-01-11T11:14:31.369Z,21.13
2019-01-11T11:17:02.685Z,22.87
2019-01-11T11:19:33.941Z,26.70
2019-01-11T11:22:05.242Z,19.97
2019-01-11T11:24:36.453Z,24.13
2019-01-11T11:27:07.925Z,19.57
2019-01-11T11:29:39.182Z,26.77
2019-01-11T11:32:12.167Z,25.63
2019-01-11T11:34:46.060Z,29.43
2019-01-11T11:37:18.904Z,21.60
2019-01-11T11:39:51.736Z,20.83
2019-01-11T11:42:23.697Z,26.10
2019-01-11T11:44:54.957Z,22.97
2019-01-11T11:47:26.248Z,28.17
2019-01-11T11:49:57.513Z,26.80
2019-01-11T11:52:28.758Z,33.90
2019-01-11T11:55:00.181Z,23.37
2019-01-11T11:57:31.414Z,20.57
2019-01-11T12:00:02.664Z,23.67
2019-01-11T12:02:33.938Z,28.47
2019-01-11T12:05:06.125Z,25.87
2019-01-11T12:07:37.554Z,26.90
2019-01-11T12:10:10.552Z,29.23
2019-01-11T12:12:41.805Z,24.73
2019-01-11T12:15:14.046Z,24.43
2019-01-11T12:17:45.454Z,23.30
2019-01-11T12:20:21.006Z,22.27
2019-01-11T12:22:52.353Z,22.63
2019-01-11T12:25:23.766Z,24.83
2019-01-11T12:27:55.014Z,21.77
2019-01-11T12:30:26.282Z,20.83
2019-01-11T12:32:57.709Z,22.13
2019-01-11T12:35:28.974Z,22.93
2019-01-11T12:38:00.385Z,20.83
2019-01-11T12:40:31.650Z,23.00
2019-01-11T12:43:03.577Z,22.87
2019-01-11T12:45:34.840Z,24.43
2019-01-11T12:48:06.140Z,24.47
2019-01-11T12:50:37.371Z,23.00
2019-01-11T12:53:08.637Z,22.03
2019-01-11T12:55:41.281Z,21.97
2019-01-11T12:58:12.679Z,21.90
2019-01-11T13:00:43.927Z,21.43
2019-01-11T13:03:16.205Z,20.00
2019-01-11T13:05:47.474Z,21.27
2019-01-11T13:08:18.901Z,22.37
2019-01-11T13:10:50.201Z,21.80
2019-01-11T13:13:21.481Z,20.40
2019-01-11T13:15:53.089Z,23.53
2019-01-11T13:18:24.353Z,21.83
2019-01-11T13:20:55.617Z,38.60
2019-01-11T13:23:26.884Z,30.60
2019-01-11T13:25:59.905Z,30.33
2019-01-11T13:28:31.145Z,37.93
2019-01-11T13:31:02.421Z,63.13
2019-01-11T13:33:33.675Z,111.90
2019-01-11T13:36:11.728Z,83.50
2019-01-11T13:38:43.194Z,45.60
2019-01-11T13:41:14.644Z,31.63
2019-01-11T13:43:46.369Z,26.93
2019-01-11T13:46:17.665Z,22.67
2019-01-11T13:48:48.957Z,32.30
2019-01-11T13:51:20.329Z,28.40
2019-01-11T13:53:51.636Z,27.30
2019-01-11T13:56:22.930Z,23.63
2019-01-11T13:58:54.201Z,26.20
2019-01-11T14:01:25.598Z,27.37
2019-01-11T14:03:56.885Z,26.50
2019-01-11T14:06:28.106Z,25.10
2019-01-11T14:08:59.413Z,21.57
2019-01-11T14:11:30.628Z,21.20
2019-01-11T14:14:01.925Z,19.90
2019-01-11T14:16:33.194Z,21.10
2019-01-11T14:19:04.585Z,22.10
2019-01-11T14:21:35.859Z,21.20
2019-01-11T14:24:07.125Z,22.90
2019-01-11T14:26:41.358Z,25.43
2019-01-11T14:29:12.626Z,21.40
2019-01-11T14:31:44.071Z,21.40
2019-01-11T14:34:15.358Z,21.63
2019-01-11T14:36:47.633Z,23.17
2019-01-11T14:39:18.908Z,24.60
2019-01-11T14:41:50.463Z,25.53
2019-01-11T14:44:21.729Z,25.27
2019-01-11T14:46:53.170Z,23.93
2019-01-11T14:49:24.459Z,22.70
2019-01-11T14:51:55.791Z,24.40
2019-01-11T14:54:27.116Z,27.80
2019-01-11T14:56:58.452Z,31.67
2019-01-11T14:59:29.741Z,26.83
2019-01-11T15:02:00.988Z,29.13
2019-01-11T15:04:32.847Z,29.53
2019-01-11T15:07:04.380Z,27.87
2019-01-11T15:09:35.996Z,27.13
2019-01-11T15:12:07.323Z,30.03
2019-01-11T15:14:38.989Z,25.47
2019-01-11T15:17:10.233Z,29.33
2019-01-11T15:19:41.469Z,27.90
2019-01-11T15:22:12.909Z,26.73
2019-01-11T15:24:44.393Z,29.17
2019-01-11T15:27:16.716Z,31.97
2019-01-11T15:29:47.972Z,37.03
2019-01-11T15:32:19.236Z,30.83
2019-01-11T15:34:50.513Z,30.17
2019-01-11T15:37:21.873Z,30.63
2019-01-11T15:39:54.298Z,30.57
2019-01-11T15:42:26.021Z,30.70
2019-01-11T15:44:57.289Z,32.30
2019-01-11T15:47:28.521Z,35.20
2019-01-11T15:50:00.305Z,34.27
2019-01-11T15:52:33.422Z,41.50
2019-01-11T15:55:05.484Z,44.27
2019-01-11T15:57:42.911Z,41.77
2019-01-11T16:00:18.065Z,44.83
2019-01-11T16:02:49.424Z,41.70
2019-01-11T16:05:20.702Z,31.93
2019-01-11T16:07:51.986Z,36.10
2019-01-11T16:10:23.968Z,32.40
2019-01-11T16:13:32.198Z,30.97
2019-01-11T16:16:24.245Z,38.27
2019-01-11T16:18:57.264Z,57.93
2019-01-11T16:21:30.240Z,64.47
2019-01-11T16:24:01.504Z,82.97
2019-01-11T16:26:32.877Z,31.33
2019-01-11T16:29:04.136Z,24.20
2019-01-11T16:31:37.275Z,28.70
2019-01-11T16:34:09.910Z,21.43
2019-01-11T16:36:41.270Z,22.90
2019-01-11T16:39:12.656Z,25.20
2019-01-11T16:41:43.884Z,23.20
2019-01-11T16:44:15.149Z,23.33
2019-01-11T16:46:46.407Z,23.27
2019-01-11T16:49:18.252Z,22.10
2019-01-11T16:51:49.618Z,25.10
2019-01-11T16:57:10.709Z,49.60
2019-01-11T16:59:42.412Z,21.03
2019-01-11T17:02:13.719Z,28.67
2019-01-11T17:04:44.960Z,17.40
2019-01-11T17:07:17.749Z,24.47
2019-01-11T17:09:49.036Z,18.43
2019-01-11T17:12:20.352Z,23.53
2019-01-11T17:14:51.765Z,22.67
2019-01-11T17:17:23.305Z,25.07
2019-01-11T17:19:55.074Z,22.63
2019-01-11T17:22:26.321Z,32.63
2019-01-11T17:24:57.649Z,22.83
2019-01-11T17:27:28.905Z,25.90
2019-01-11T17:30:02.907Z,24.97
2019-01-11T17:32:34.211Z,22.03
2019-01-11T17:35:05.996Z,21.47
2019-01-11T17:37:37.241Z,20.67
2019-01-11T17:40:09.480Z,22.80
2019-01-11T17:42:40.833Z,30.87
2019-01-11T17:45:13.937Z,22.30
2019-01-11T17:47:45.338Z,24.17
2019-01-11T17:50:18.370Z,27.13
2019-01-11T17:52:49.724Z,24.10
2019-01-11T17:55:21.254Z,30.10
2019-01-11T17:57:52.575Z,30.70
2019-01-11T18:00:23.875Z,23.43
2019-01-11T18:02:55.498Z,20.93
2019-01-11T18:05:26.858Z,24.83
2019-01-11T18:07:59.481Z,24.03
2019-01-11T18:10:31.006Z,26.33
2019-01-11T18:13:03.491Z,25.60
2019-01-11T18:15:34.821Z,27.17
2019-01-11T18:18:06.202Z,28.07
2019-01-11T18:20:37.509Z,28.53
2019-01-11T18:23:10.399Z,31.30
2019-01-11T18:25:41.819Z,26.43
2019-01-11T18:28:13.101Z,29.93
2019-01-11T18:30:45.204Z,31.07
2019-01-11T18:33:16.913Z,30.00
2019-01-11T18:35:48.280Z,31.17
2019-01-11T18:38:19.712Z,34.83
2019-01-11T18:40:51.140Z,25.47
2019-01-11T18:43:22.446Z,26.50
2019-01-11T18:45:53.907Z,27.77
2019-01-11T18:48:25.237Z,24.77
2019-01-11T18:50:56.795Z,28.23
2019-01-11T18:53:28.511Z,26.03
2019-01-11T18:56:05.428Z,26.03
2019-01-11T18:58:32.801Z,26.47
2019-01-11T19:01:04.306Z,25.93
2019-01-11T19:03:35.589Z,25.53
2019-01-11T19:06:07.062Z,26.33
2019-01-11T19:08:39.328Z,25.97
2019-01-11T19:11:10.644Z,25.17
2019-01-11T19:13:41.916Z,25.63
2019-01-11T19:16:13.391Z,25.23
2019-01-11T19:18:47.025Z,23.67
2019-01-11T19:21:18.597Z,26.40
2019-01-11T19:23:50.775Z,26.67
2019-01-11T19:26:23.259Z,24.43
2019-01-11T19:28:54.614Z,25.53
2019-01-11T19:31:26.123Z,21.10
2019-01-11T19:33:57.472Z,18.63
2019-01-11T19:36:28.844Z,21.53
2019-01-11T19:39:00.202Z,20.40
2019-01-11T19:41:31.536Z,18.60
2019-01-11T19:44:03.384Z,18.60
2019-01-11T19:46:34.877Z,17.87
2019-01-11T19:49:07.597Z,19.43
2019-01-11T19:51:38.876Z,18.93
2019-01-11T19:54:10.249Z,29.30
2019-01-11T19:56:41.577Z,21.33
2019-01-11T19:59:13.173Z,19.90
2019-01-11T20:01:44.497Z,21.17
2019-01-11T20:04:16.970Z,20.67
2019-01-11T20:06:50.346Z,21.20
2019-01-11T20:09:21.670Z,23.20
2019-01-11T20:11:53.281Z,21.37
2019-01-11T20:14:24.618Z,23.17
2019-01-11T20:16:56.012Z,21.53
2019-01-11T20:19:27.773Z,20.77
2019-01-11T20:21:59.128Z,20.73
2019-01-11T20:24:31.614Z,21.10
2019-01-11T20:27:02.957Z,20.70
2019-01-11T20:29:34.362Z,21.77
2019-01-11T20:32:05.853Z,20.57
2019-01-11T20:34:37.174Z,21.37
2019-01-11T20:37:26.410Z,20.27
2019-01-11T20:39:57.739Z,20.67
2019-01-11T20:42:29.120Z,19.90
2019-01-11T20:45:00.464Z,22.63
2019-01-11T20:47:31.799Z,23.50
2019-01-11T20:50:03.108Z,23.10
2019-01-11T20:52:34.381Z,21.77
2019-01-11T20:55:07.562Z,20.53
2019-01-11T20:57:39.496Z,20.80
2019-01-11T21:00:31.714Z,20.63
2019-01-11T21:03:04.512Z,21.40
2019-01-11T21:05:37.287Z,21.63
2019-01-11T21:08:09.165Z,20.87
2019-01-11T21:10:40.741Z,23.80
2019-01-11T21:13:14.072Z,19.40
2019-01-11T21:16:00.815Z,22.17
2019-01-11T21:18:33.357Z,22.53
2019-01-11T21:21:09.257Z,23.07
2019-01-11T21:23:49.154Z,22.73
2019-01-11T21:26:25.407Z,23.77
2019-01-11T21:29:03.259Z,20.03
2019-01-11T21:31:39.320Z,23.27
2019-01-11T21:34:18.170Z,25.13
2019-01-11T21:36:55.594Z,22.50
2019-01-11T21:39:48.758Z,25.27
2019-01-11T21:42:21.515Z,22.97
2019-01-11T21:45:11.836Z,20.37
2019-01-11T21:47:59.371Z,24.67
2019-01-11T21:50:39.336Z,27.80
2019-01-11T21:53:24.612Z,24.57
2019-01-11T21:56:08.365Z,28.27
2019-01-11T21:58:44.058Z,29.47
2019-01-11T22:01:18.518Z,28.60
2019-01-11T22:03:57.445Z,27.37
2019-01-11T22:06:41.494Z,25.53
2019-01-11T22:09:21.918Z,26.43
2019-01-11T22:11:56.283Z,25.57
2019-01-11T22:14:36.702Z,26.00
2019-01-11T22:17:16.851Z,22.20
2019-01-11T22:19:50.184Z,24.40
2019-01-11T22:22:33.489Z,24.33
2019-01-11T22:25:07.275Z,23.37
2019-01-11T22:27:48.782Z,16.33
2019-01-11T22:30:30.409Z,23.47
2019-01-11T22:33:09.349Z,24.00
2019-01-11T22:35:43.314Z,21.87
2019-01-11T22:38:25.223Z,22.00
2019-01-11T22:41:01.329Z,25.30
2019-01-11T22:43:48.985Z,26.40
2019-01-11T22:46:25.687Z,24.47
2019-01-11T22:49:02.953Z,25.00
2019-01-11T22:51:40.034Z,25.60
2019-01-11T22:54:19.573Z,20.30
2019-01-11T22:56:56.957Z,24.90
2019-01-11T22:59:30.031Z,28.10
2019-01-11T23:02:29.854Z,26.80
2019-01-11T23:05:12.575Z,27.33
2019-01-11T23:07:55.700Z,30.57
2019-01-11T23:11:10.571Z,29.97
2019-01-11T23:13:45.012Z,28.63
2019-01-11T23:16:34.547Z,25.30
2019-01-11T23:19:09.180Z,26.87
2019-01-11T23:21:46.774Z,26.13
2019-01-11T23:24:19.586Z,24.70
2019-01-11T23:27:01.994Z,25.53
2019-01-11T23:29:38.670Z,27.73
2019-01-11T23:32:16.933Z,26.50
2019-01-11T23:34:54.022Z,26.37
2019-01-11T23:37:29.585Z,30.33
2019-01-11T23:40:03.725Z,30.33
2019-01-11T23:42:43.751Z,29.57
2019-01-11T23:45:19.749Z,24.53
2019-01-11T23:48:01.169Z,28.27
2019-01-11T23:50:32.616Z,28.23
2019-01-11T23:53:03.965Z,27.40
2019-01-11T23:55:36.992Z,27.67
2019-01-11T23:58:08.244Z,25.77
